Time;durP1;ratioP1;P1;durP2;ratioP2;P2;SDS_P1;SDS_P2;PMS_P1;PMS_P2;Temp;Humidity;BMP_temperature;BMP_pressure;BME280_temperature;BME280_humidity;BME280_pressure;Samples;Min_cycle;Max_cycle;Signal;HPM_P1;HPM_P2
2023/03/13 00:01:44;;;;;;;52.42;10.15;;;;;;;5.71;100.00;99562.91;4997544;28;20038;-84
2023/03/13 00:04:09;;;;;;;41.67;10.48;;;;;;;5.61;100.00;99544.50;5013050;28;20365;-84
2023/03/13 00:06:37;;;;;;;52.90;12.23;;;;;;;5.65;100.00;99561.75;4981423;28;20102;-86
2023/03/13 00:09:05;;;;;;;57.33;12.48;;;;;;;5.69;100.00;99549.03;4981580;28;20038;-82
2023/03/13 00:11:31;;;;;;;52.75;11.55;;;;;;;5.68;100.00;99542.88;4994012;28;20041;-85
2023/03/13 00:13:59;;;;;;;53.88;13.60;;;;;;;5.68;100.00;99544.69;5009522;28;20042;-83
2023/03/13 00:16:24;;;;;;;65.60;13.85;;;;;;;5.67;100.00;99533.28;5006375;28;20152;-84
2023/03/13 00:18:52;;;;;;;56.45;11.88;;;;;;;5.74;100.00;99538.78;5007558;28;20073;-84
2023/03/13 00:21:20;;;;;;;41.70;12.68;;;;;;;5.69;100.00;99541.09;4976444;28;20026;-84
2023/03/13 00:23:46;;;;;;;61.83;14.00;;;;;;;5.76;100.00;99530.66;4993295;28;20470;-84
2023/03/13 00:26:13;;;;;;;;;;;;;;;5.78;100.00;99533.97;4992888;28;20041;-84
2023/03/13 00:28:40;;;;;;;53.25;13.15;;;;;;;5.80;100.00;99524.88;5009238;28;19917;-84
2023/03/13 00:31:13;;;;;;;61.70;15.77;;;;;;;5.81;100.00;99525.72;4992771;28;20038;-85
2023/03/13 00:33:42;;;;;;;52.85;15.27;;;;;;;5.81;100.00;99515.94;5009018;28;20105;-83
2023/03/13 00:36:13;;;;;;;54.70;15.32;;;;;;;5.88;100.00;99516.13;5007859;28;20018;-83
2023/03/13 00:38:39;;;;;;;53.95;15.95;;;;;;;5.80;100.00;99503.69;5008881;28;20061;-82
2023/03/13 00:41:07;;;;;;;59.08;16.88;;;;;;;5.86;100.00;99511.00;4976477;28;20038;-84
2023/03/13 00:43:34;;;;;;;49.05;15.55;;;;;;;5.90;100.00;99514.16;5008098;28;20037;-82
2023/03/13 00:46:00;;;;;;;80.88;18.42;;;;;;;5.91;100.00;99500.72;5011648;28;20823;-81
2023/03/13 00:48:26;;;;;;;73.45;15.40;;;;;;;5.92;100.00;99493.59;4994281;28;20410;-82
2023/03/13 00:50:52;;;;;;;;;;;;;;;5.91;100.00;99495.44;4995462;28;20498;-82
2023/03/13 00:53:19;;;;;;;53.53;14.43;;;;;;;5.88;100.00;99487.81;5011644;28;20656;-83
2023/03/13 00:55:51;;;;;;;52.47;17.85;;;;;;;5.89;100.00;99481.50;4995208;28;20407;-81
2023/03/13 00:58:17;;;;;;;68.78;16.05;;;;;;;5.95;100.00;99473.94;4995069;28;20056;-83
2023/03/13 01:00:42;;;;;;;51.23;17.80;;;;;;;6.01;100.00;99470.63;4978644;28;20479;-86
2023/03/13 01:03:08;;;;;;;59.33;18.57;;;;;;;5.98;100.00;99477.09;4995369;28;20374;-82
2023/03/13 01:05:33;;;;;;;81.27;19.03;;;;;;;5.93;100.00;99466.13;5008896;28;20039;-86
2023/03/13 01:07:58;;;;;;;51.40;18.13;;;;;;;5.97;100.00;99474.59;5030271;28;20077;-85
2023/03/13 01:10:24;;;;;;;50.13;15.07;;;;;;;6.00;100.00;99469.00;4994549;28;20034;-83
2023/03/13 01:12:49;;;;;;;49.20;16.63;;;;;;;6.03;100.00;99474.78;4978338;28;20035;-84
2023/03/13 01:15:15;;;;;;;43.67;16.00;;;;;;;5.99;100.00;99462.03;4994619;28;20050;-82
2023/03/13 01:17:43;;;;;;;51.53;16.80;;;;;;;5.97;100.00;99461.34;4974987;28;20542;-83
2023/03/13 01:20:09;;;;;;;53.83;16.90;;;;;;;6.03;100.00;99461.53;5026353;28;20058;-82
2023/03/13 01:22:34;;;;;;;66.72;17.08;;;;;;;5.97;100.00;99459.56;4994256;28;20437;-82
2023/03/13 01:24:59;;;;;;;46.60;17.13;;;;;;;5.97;100.00;99454.25;4977573;28;20125;-84
2023/03/13 01:27:25;;;;;;;63.53;15.80;;;;;;;5.94;100.00;99449.28;4993888;28;20115;-85
2023/03/13 01:29:50;;;;;;;60.97;17.17;;;;;;;5.99;100.00;99443.47;4990272;28;20058;-83
2023/03/13 01:32:16;;;;;;;60.80;17.17;;;;;;;5.99;100.00;99448.78;4994539;28;20026;-82
2023/03/13 01:34:41;;;;;;;48.53;14.60;;;;;;;6.06;100.00;99449.78;4977229;28;20052;-83
2023/03/13 01:37:06;;;;;;;53.67;16.63;;;;;;;6.04;100.00;99439.38;4993229;28;20164;-82
2023/03/13 01:39:32;;;;;;;43.20;14.83;;;;;;;6.04;100.00;99434.06;5009501;28;20034;-83
2023/03/13 01:41:57;;;;;;;54.77;15.37;;;;;;;6.09;100.00;99446.81;4992633;28;20046;-82
2023/03/13 01:44:25;;;;;;;52.73;16.57;;;;;;;6.04;100.00;99435.84;4992816;28;20038;-82
2023/03/13 01:46:51;;;;;;;49.72;14.23;;;;;;;6.05;100.00;99433.06;4992843;28;20027;-82
2023/03/13 01:49:33;;;;;;;52.92;15.35;;;;;;;6.01;100.00;99407.06;4992224;28;20030;-82
2023/03/13 01:52:30;;;;;;;;;;;;;;;6.06;100.00;99404.72;4941276;28;20098;-83
2023/03/13 01:55:14;;;;;;;36.50;13.98;;;;;;;6.02;100.00;99414.03;5007704;28;19910;-83
2023/03/13 01:57:49;;;;;;;39.22;13.25;;;;;;;6.04;100.00;99402.28;4992743;28;20505;-84
2023/03/13 02:00:23;;;;;;;43.78;12.80;;;;;;;6.08;100.00;99392.16;5001381;28;20034;-84
2023/03/13 02:02:52;;;;;;;53.22;13.35;;;;;;;6.07;100.00;99382.56;4992500;28;20034;-83
2023/03/13 02:05:21;;;;;;;47.08;15.23;;;;;;;6.05;100.00;99385.38;4976568;28;20018;-81
2023/03/13 02:08:00;;;;;;;44.60;15.35;;;;;;;6.10;100.00;99376.91;4976343;28;20054;-83
2023/03/13 02:10:28;;;;;;;57.75;14.35;;;;;;;6.10;100.00;99361.84;5005121;28;20034;-83
2023/03/13 02:12:57;;;;;;;39.22;12.52;;;;;;;6.12;100.00;99366.97;4982864;28;20031;-84
2023/03/13 02:15:26;;;;;;;36.85;12.82;;;;;;;6.19;100.00;99367.13;4976136;28;20026;-81
2023/03/13 02:17:53;;;;;;;37.45;13.00;;;;;;;6.21;100.00;99349.25;4992221;28;20058;-82
2023/03/13 02:20:22;;;;;;;47.95;11.63;;;;;;;6.21;100.00;99357.19;4992078;28;20129;-83
2023/03/13 02:22:55;;;;;;;35.47;12.15;;;;;;;6.18;100.00;99344.28;4993136;28;20085;-83
2023/03/13 02:25:23;;;;;;;34.25;11.98;;;;;;;6.20;100.00;99337.81;5005339;28;20543;-81
2023/03/13 02:27:59;;;;;;;41.33;12.15;;;;;;;6.19;100.00;99341.47;5003933;28;20026;-83
2023/03/13 02:30:26;;;;;;;44.05;12.90;;;;;;;6.17;100.00;99340.78;4988296;28;20994;-84
2023/03/13 02:32:51;;;;;;;46.33;12.13;;;;;;;6.19;100.00;99325.56;4997082;28;20554;-83
2023/03/13 02:35:19;;;;;;;41.63;11.77;;;;;;;6.19;100.00;99327.38;4991389;28;20044;-82
2023/03/13 02:37:55;;;;;;;48.95;12.93;;;;;;;6.11;100.00;99318.47;4989073;28;20070;-84
2023/03/13 02:40:31;;;;;;;43.70;13.32;;;;;;;6.11;100.00;99322.91;4991159;28;20034;-81
2023/03/13 02:43:00;;;;;;;53.83;12.25;;;;;;;6.03;100.00;99320.28;4989029;28;20034;-81
2023/03/13 02:45:26;;;;;;;50.03;14.77;;;;;;;5.98;100.00;99314.66;4987599;28;20034;-82
2023/03/13 02:47:51;;;;;;;47.90;13.90;;;;;;;5.90;100.00;99316.31;4989226;28;20038;-83
2023/03/13 02:50:17;;;;;;;50.57;16.10;;;;;;;5.88;100.00;99323.59;4987901;28;20074;-83
2023/03/13 02:52:47;;;;;;;56.05;14.18;;;;;;;5.95;100.00;99323.78;4991270;28;20030;-84
2023/03/13 02:55:21;;;;;;;68.82;17.25;;;;;;;5.93;100.00;99321.25;4991647;28;20034;-82
2023/03/13 02:57:47;;;;;;;60.13;14.95;;;;;;;5.89;100.00;99325.22;4991506;28;20041;-82
2023/03/13 03:00:15;;;;;;;60.03;16.15;;;;;;;5.88;100.00;99314.81;4991015;28;20093;-83
2023/03/13 03:02:41;;;;;;;59.15;14.63;;;;;;;5.91;100.00;99315.28;4990879;28;20053;-83
2023/03/13 03:05:06;;;;;;;66.07;17.23;;;;;;;5.92;100.00;99313.47;4990484;28;20042;-83
2023/03/13 03:07:32;;;;;;;75.80;14.95;;;;;;;5.93;100.00;99308.00;4973738;28;20032;-84
2023/03/13 03:09:57;;;;;;;39.10;13.57;;;;;;;5.89;100.00;99298.75;4989893;28;20069;-83
2023/03/13 03:12:23;;;;;;;61.50;14.83;;;;;;;5.88;100.00;99283.84;4990090;28;20038;-83
2023/03/13 03:14:48;;;;;;;55.00;13.73;;;;;;;5.94;100.00;99292.97;4990910;28;20046;-82
2023/03/13 03:17:14;;;;;;;49.90;14.30;;;;;;;5.96;100.00;99287.50;4990277;28;20546;-83
2023/03/13 03:19:40;;;;;;;46.93;14.03;;;;;;;5.97;100.00;99290.00;4984558;28;20034;-85
2023/03/13 03:22:06;;;;;;;48.90;13.77;;;;;;;6.07;100.00;99285.34;5003024;28;20121;-84
2023/03/13 03:24:32;;;;;;;44.93;12.00;;;;;;;6.08;100.00;99275.56;4990838;28;20117;-83
2023/03/13 03:26:57;;;;;;;39.60;12.50;;;;;;;6.10;100.00;99268.28;4989880;28;20313;-82
2023/03/13 03:29:27;;;;;;;60.17;14.05;;;;;;;6.10;100.00;99260.31;5006386;28;20037;-83
2023/03/13 03:31:54;;;;;;;54.47;13.90;;;;;;;6.15;100.00;99255.34;4989328;28;20053;-82
2023/03/13 03:34:19;;;;;;;53.25;15.18;;;;;;;6.11;100.00;99251.38;4990452;28;20026;-85
2023/03/13 03:36:46;;;;;;;56.72;14.30;;;;;;;6.07;100.00;99250.06;5020854;28;20038;-83
2023/03/13 03:39:11;;;;;;;40.43;13.10;;;;;;;6.20;100.00;99249.53;5006288;28;20389;-83
2023/03/13 03:41:37;;;;;;;46.53;13.73;;;;;;;6.07;100.00;99220.94;5006616;28;20046;-83
2023/03/13 03:44:03;;;;;;;59.20;13.95;;;;;;;6.02;100.00;99218.78;4990232;28;20034;-83
2023/03/13 03:46:38;;;;;;;52.35;13.95;;;;;;;5.99;100.00;99221.75;4990282;28;20035;-82
2023/03/13 03:49:04;;;;;;;62.17;15.23;;;;;;;5.97;100.00;99205.25;5006015;28;20077;-82
2023/03/13 03:51:29;;;;;;;45.50;13.07;;;;;;;5.95;100.00;99212.53;4987685;28;20033;-82
2023/03/13 03:53:55;;;;;;;50.00;12.97;;;;;;;5.95;100.00;99207.22;4988566;28;20034;-83
2023/03/13 03:56:20;;;;;;;55.90;14.60;;;;;;;5.89;100.00;99195.44;4990491;28;20166;-83
2023/03/13 03:58:50;;;;;;;52.22;14.55;;;;;;;5.96;100.00;99205.41;4989970;28;20073;-82
2023/03/13 04:01:35;;;;;;;50.03;12.10;;;;;;;6.00;100.00;99196.13;4990706;28;20109;-83
2023/03/13 04:04:01;;;;;;;50.95;15.20;;;;;;;5.95;100.00;99185.19;4974359;28;20034;-83
2023/03/13 04:06:27;;;;;;;42.10;13.63;;;;;;;6.02;100.00;99180.88;5004749;28;20071;-82
2023/03/13 04:08:53;;;;;;;52.03;14.83;;;;;;;6.02;100.00;99180.88;4995913;28;20046;-82
2023/03/13 04:11:21;;;;;;;48.88;14.23;;;;;;;6.02;100.00;99170.28;4990165;28;20498;-82
2023/03/13 04:13:51;;;;;;;56.88;15.52;;;;;;;6.00;100.00;99167.78;5004053;28;20034;-82
2023/03/13 04:16:16;;;;;;;55.03;15.15;;;;;;;6.08;100.00;99153.69;4990456;28;20030;-82
2023/03/13 04:18:43;;;;;;;51.00;15.93;;;;;;;6.05;100.00;99136.31;4993639;28;20244;-82
2023/03/13 04:21:08;;;;;;;48.07;15.37;;;;;;;6.03;100.00;99135.66;4977466;28;20019;-83
2023/03/13 04:23:40;;;;;;;51.20;13.63;;;;;;;6.08;100.00;99121.88;4975049;28;20363;-85
2023/03/13 04:26:05;;;;;;;45.00;13.63;;;;;;;6.06;100.00;99113.28;4986333;28;20688;-83
2023/03/13 04:28:31;;;;;;;53.63;16.35;;;;;;;6.02;100.00;99098.75;4993716;28;20030;-83
2023/03/13 04:30:57;;;;;;;;;;;;;;;6.07;100.00;99107.00;4994704;28;20042;-83
2023/03/13 04:33:41;;;;;;;52.60;16.98;;;;;;;5.99;100.00;99091.13;4992713;28;19917;-82
2023/03/13 04:36:28;;;;;;;45.33;13.38;;;;;;;6.04;100.00;99094.06;4993892;28;20038;-83
2023/03/13 04:39:11;;;;;;;44.50;12.13;;;;;;;5.95;100.00;99089.81;4979958;28;20458;-82
2023/03/13 04:41:55;;;;;;;54.15;14.57;;;;;;;5.96;100.00;99072.94;4995346;28;20061;-83
2023/03/13 04:44:32;;;;;;;44.17;14.18;;;;;;;5.95;100.00;99079.22;4993584;28;20049;-82
2023/03/13 04:47:18;;;;;;;51.03;14.00;;;;;;;5.93;100.00;99063.50;5000343;28;20038;-82
2023/03/13 04:50:00;;;;;;;48.40;13.48;;;;;;;5.89;100.00;99052.41;4992669;28;20038;-82
2023/03/13 04:52:48;;;;;;;45.35;14.18;;;;;;;5.99;100.00;99048.75;4995877;28;20049;-82
2023/03/13 04:55:39;;;;;;;45.03;15.40;;;;;;;5.98;100.00;99039.16;4979685;28;20575;-83
2023/03/13 04:58:32;;;;;;;53.42;14.40;;;;;;;5.98;100.00;99021.44;5006773;28;20509;-82
2023/03/13 05:01:16;;;;;;;57.33;15.50;;;;;;;6.00;100.00;99024.75;4993400;28;20057;-83
2023/03/13 05:04:00;;;;;;;45.75;14.60;;;;;;;5.98;100.00;99020.63;4993514;28;20118;-83
2023/03/13 05:06:48;;;;;;;49.10;15.25;;;;;;;5.98;100.00;99004.72;4983649;28;20053;-82
2023/03/13 05:09:46;;;;;;;53.42;15.38;;;;;;;5.83;100.00;98975.47;4961710;28;20053;-81
2023/03/13 05:12:31;;;;;;;41.10;15.40;;;;;;;5.98;100.00;98994.94;5005787;28;20034;-84
2023/03/13 05:15:04;;;;;;;52.00;14.93;;;;;;;5.95;100.00;98983.88;4993947;28;20115;-82
2023/03/13 05:17:44;;;;;;;53.13;16.08;;;;;;;5.92;100.00;98977.06;4992975;28;20030;-82
2023/03/13 05:20:34;;;;;;;52.28;15.57;;;;;;;5.98;100.00;98963.16;4993039;28;20096;-81
2023/03/13 05:23:09;;;;;;;51.78;15.45;;;;;;;6.02;100.00;98958.34;4992843;28;20494;-83
2023/03/13 05:25:47;;;;;;;44.10;14.25;;;;;;;5.99;100.00;98945.44;4986341;28;20654;-82
2023/03/13 05:28:20;;;;;;;51.08;15.82;;;;;;;6.06;100.00;98943.72;4976718;28;20491;-84
2023/03/13 05:30:53;;;;;;;52.00;15.90;;;;;;;5.96;100.00;98921.94;4992720;28;20100;-82
2023/03/13 05:33:37;;;;;;;50.25;16.13;;;;;;;5.94;100.00;98924.78;4993012;28;20108;-82
2023/03/13 05:36:21;;;;;;;44.35;14.38;;;;;;;5.99;100.00;98916.28;4995067;28;20096;-82
2023/03/13 05:39:12;;;;;;;37.75;14.52;;;;;;;5.99;100.00;98909.16;4997475;28;20040;-83
2023/03/13 05:41:47;;;;;;;49.97;15.32;;;;;;;6.02;100.00;98894.75;5022828;28;20050;-84
2023/03/13 05:44:31;;;;;;;40.88;13.32;;;;;;;6.01;100.00;98891.28;5015605;28;20034;-85
2023/03/13 05:47:13;;;;;;;47.72;13.82;;;;;;;6.03;100.00;98888.44;5014850;28;20034;-82
2023/03/13 05:49:38;;;;;;;41.60;14.10;;;;;;;6.07;100.00;98887.09;5027517;28;20057;-84
2023/03/13 05:52:24;;;;;;;41.20;13.52;;;;;;;6.05;100.00;98875.84;4970205;28;20128;-84
2023/03/13 05:55:12;;;;;;;35.97;12.35;;;;;;;6.08;100.00;98878.13;4993565;28;20041;-84
2023/03/13 05:57:47;;;;;;;44.38;13.10;;;;;;;6.10;100.00;98871.66;4981182;28;20041;-84
2023/03/13 06:00:35;;;;;;;42.15;11.73;;;;;;;6.10;100.00;98861.06;4959539;28;20045;-85
2023/03/13 06:03:29;;;;;;;32.65;11.93;;;;;;;6.13;100.00;98866.00;4996346;28;20127;-84
2023/03/13 06:05:58;;;;;;;39.90;13.77;;;;;;;6.16;100.00;98861.34;4980372;28;20058;-84
2023/03/13 06:08:31;;;;;;;29.67;10.48;;;;;;;6.16;100.00;98848.09;4995880;28;20030;-84
2023/03/13 06:11:01;;;;;;;34.08;9.02;;;;;;;6.15;100.00;98841.97;4995128;28;20038;-84
2023/03/13 06:13:27;;;;;;;36.25;8.75;;;;;;;6.19;100.00;98829.19;4976008;28;20032;-84
2023/03/13 06:15:56;;;;;;;27.92;9.30;;;;;;;6.12;100.00;98829.91;4994790;28;20031;-83
2023/03/13 06:18:36;;;;;;;29.88;9.63;;;;;;;6.20;100.00;98822.88;4980230;28;20022;-85
2023/03/13 06:21:02;;;;;;;27.50;9.87;;;;;;;6.19;100.00;98821.25;4999429;28;20060;-84
2023/03/13 06:23:28;;;;;;;21.13;7.50;;;;;;;6.21;100.00;98809.47;4977894;28;20080;-83
2023/03/13 06:25:54;;;;;;;20.85;7.80;;;;;;;6.24;100.00;98809.09;4993505;28;20303;-84
2023/03/13 06:28:19;;;;;;;22.25;6.57;;;;;;;6.21;100.00;98792.75;4991758;28;20030;-85
2023/03/13 06:30:45;;;;;;;14.65;6.22;;;;;;;6.25;100.00;98784.25;4995490;28;20121;-85
2023/03/13 06:33:10;;;;;;;14.73;6.38;;;;;;;6.32;100.00;98784.31;4993663;28;20034;-85
2023/03/13 06:35:40;;;;;;;19.77;5.38;;;;;;;6.31;100.00;98775.53;4993617;28;20456;-83
2023/03/13 06:38:05;;;;;;;23.60;6.20;;;;;;;6.35;100.00;98773.38;4993088;28;20053;-85
2023/03/13 06:40:30;;;;;;;24.90;5.67;;;;;;;6.28;100.00;98757.38;4992501;28;20026;-82
2023/03/13 06:42:56;;;;;;;17.53;5.47;;;;;;;6.36;100.00;98761.75;5007511;23;20049;-74
2023/03/13 06:45:21;;;;;;;20.57;5.50;;;;;;;6.37;100.00;98762.56;5021621;28;20029;-74
2023/03/13 06:47:47;;;;;;;15.43;5.40;;;;;;;6.38;100.00;98756.28;5021590;28;20044;-73
2023/03/13 06:50:13;;;;;;;;;;;;;;;6.44;100.00;98744.91;5008755;28;20483;-74
2023/03/13 06:52:38;;;;;;;15.85;4.57;;;;;;;6.45;100.00;98738.63;4986791;28;20001;-72
2023/03/13 06:55:04;;;;;;;13.27;5.37;;;;;;;6.51;100.00;98729.94;4985264;28;20142;-74
2023/03/13 06:57:29;;;;;;;16.45;4.13;;;;;;;6.55;100.00;98739.16;4985796;28;20128;-72
2023/03/13 06:59:55;;;;;;;14.87;6.10;;;;;;;6.56;100.00;98732.84;4986107;28;20046;-72
2023/03/13 07:02:20;;;;;;;14.80;4.77;;;;;;;6.63;100.00;98711.72;4986615;28;20084;-72
2023/03/13 07:04:45;;;;;;;12.53;3.70;;;;;;;6.65;100.00;98707.03;5001163;28;20042;-74
2023/03/13 07:07:11;;;;;;;14.13;4.00;;;;;;;6.69;100.00;98695.03;4985479;28;20109;-72
2023/03/13 07:09:36;;;;;;;9.60;3.90;;;;;;;6.68;100.00;98694.22;4994186;28;20088;-74
2023/03/13 07:12:02;;;;;;;11.97;4.37;;;;;;;6.66;100.00;98667.06;4986296;28;20289;-74
2023/03/13 07:14:27;;;;;;;8.82;5.10;;;;;;;6.66;100.00;98675.03;4985245;28;20058;-74
2023/03/13 07:16:53;;;;;;;9.20;4.03;;;;;;;6.70;100.00;98681.59;4999489;28;20049;-75
2023/03/13 07:19:18;;;;;;;12.60;4.93;;;;;;;6.75;100.00;98662.47;4990180;28;20044;-74
2023/03/13 07:21:45;;;;;;;8.53;4.50;;;;;;;6.81;100.00;98645.78;5001736;28;20029;-76
2023/03/13 07:24:11;;;;;;;6.18;3.88;;;;;;;6.85;100.00;98651.56;4995261;28;20970;-76
2023/03/13 07:26:36;;;;;;;5.75;3.58;;;;;;;6.89;100.00;98643.03;4987557;28;20088;-76
2023/03/13 07:29:02;;;;;;;10.57;5.37;;;;;;;6.89;100.00;98652.81;4997429;28;20105;-75
2023/03/13 07:31:32;;;;;;;8.80;4.22;;;;;;;6.92;100.00;98658.56;4990549;28;20042;-76
2023/03/13 07:33:57;;;;;;;11.40;5.15;;;;;;;6.94;100.00;98640.63;4988036;28;20034;-76
2023/03/13 07:36:22;;;;;;;8.70;4.60;;;;;;;7.00;100.00;98636.41;4992428;28;20076;-76
2023/03/13 07:38:49;;;;;;;12.43;5.60;;;;;;;7.07;100.00;98623.16;4969503;28;20280;-76
2023/03/13 07:41:15;;;;;;;10.88;6.35;;;;;;;7.09;100.00;98623.78;4994759;28;20017;-75
2023/03/13 07:43:40;;;;;;;11.32;5.82;;;;;;;7.19;100.00;98627.78;5002643;28;20042;-77
2023/03/13 07:46:09;;;;;;;13.13;5.70;;;;;;;7.21;100.00;98619.63;4987499;28;20025;-75
2023/03/13 07:48:40;;;;;;;11.07;6.00;;;;;;;7.23;100.00;98614.91;4977382;28;20133;-75
2023/03/13 07:51:09;;;;;;;12.57;7.05;;;;;;;7.25;100.00;98604.13;4972711;28;20062;-77
2023/03/13 07:53:35;;;;;;;15.32;6.85;;;;;;;7.32;100.00;98610.31;4986207;28;20023;-75
2023/03/13 07:56:07;;;;;;;10.45;5.88;;;;;;;7.41;100.00;98611.78;4996368;28;20105;-76
2023/03/13 07:58:34;;;;;;;14.00;6.35;;;;;;;7.39;100.00;98603.19;4987219;28;20057;-75
2023/03/13 08:01:00;;;;;;;12.65;5.63;;;;;;;7.48;100.00;98596.72;4994249;28;20565;-75
2023/03/13 08:03:26;;;;;;;9.55;6.63;;;;;;;7.51;100.00;98596.31;4987596;28;20061;-77
2023/03/13 08:06:07;;;;;;;9.48;4.95;;;;;;;7.53;100.00;98591.63;4987565;28;20097;-77
2023/03/13 08:08:32;;;;;;;12.90;5.38;;;;;;;7.61;100.00;98591.50;4987561;28;20093;-77
2023/03/13 08:11:10;;;;;;;6.90;4.73;;;;;;;7.63;100.00;98583.31;4997355;28;20602;-77
2023/03/13 08:13:36;;;;;;;7.72;5.10;;;;;;;7.67;100.00;98594.38;5002938;28;20045;-76
2023/03/13 08:16:15;;;;;;;6.30;4.80;;;;;;;7.70;100.00;98591.31;4986936;28;20022;-77
2023/03/13 08:18:52;;;;;;;5.20;3.80;;;;;;;7.80;100.00;98575.88;4989964;28;20042;-77
2023/03/13 08:21:23;;;;;;;4.30;3.33;;;;;;;7.87;100.00;98565.28;4987774;28;20042;-77
2023/03/13 08:23:52;;;;;;;5.93;3.17;;;;;;;7.93;100.00;98586.53;4993140;28;20039;-76
2023/03/13 08:26:20;;;;;;;4.95;3.08;;;;;;;8.01;100.00;98575.75;4996870;28;20546;-77
2023/03/13 08:28:50;;;;;;;4.00;2.60;;;;;;;8.07;100.00;98568.00;5004899;28;20392;-77
2023/03/13 08:31:16;;;;;;;7.70;3.17;;;;;;;8.16;100.00;98564.13;5015400;28;20682;-77
2023/03/13 08:33:43;;;;;;;5.32;2.50;;;;;;;8.21;100.00;98559.03;4998983;28;20122;-77
2023/03/13 08:36:14;;;;;;;5.13;2.85;;;;;;;8.28;100.00;98565.19;4991718;28;20038;-77
2023/03/13 08:38:45;;;;;;;4.13;2.22;;;;;;;8.37;100.00;98560.50;4985559;28;20042;-76
2023/03/13 08:41:13;;;;;;;3.22;2.75;;;;;;;8.46;100.00;98559.31;4994897;28;20030;-77
2023/03/13 08:43:38;;;;;;;4.30;2.75;;;;;;;8.47;100.00;98558.28;5005731;28;20423;-77
2023/03/13 08:46:04;;;;;;;3.37;2.60;;;;;;;8.56;100.00;98545.63;4994590;28;20026;-76
2023/03/13 08:48:29;;;;;;;4.20;2.60;;;;;;;8.60;100.00;98560.16;4985366;28;20755;-75
2023/03/13 08:51:19;;;;;;;2.87;2.40;;;;;;;8.66;100.00;98546.03;5001928;28;20035;-77
2023/03/13 08:53:45;;;;;;;5.75;2.47;;;;;;;8.70;100.00;98544.63;4984299;28;20100;-77
2023/03/13 08:56:13;;;;;;;3.80;2.80;;;;;;;8.71;100.00;98535.63;4986211;28;20022;-77
2023/03/13 08:58:39;;;;;;;4.10;3.03;;;;;;;8.80;100.00;98531.75;4989056;28;20063;-76
2023/03/13 09:01:07;;;;;;;5.90;2.83;;;;;;;8.89;100.00;98532.34;4987225;28;20527;-76
2023/03/13 09:03:33;;;;;;;3.83;2.55;;;;;;;8.86;100.00;98525.56;4986082;28;20046;-77
2023/03/13 09:06:00;;;;;;;7.25;2.97;;;;;;;8.93;100.00;98530.09;4989975;28;20042;-77
2023/03/13 09:08:27;;;;;;;4.18;3.42;;;;;;;8.93;100.00;98511.47;4990817;28;20034;-76
2023/03/13 09:11:05;;;;;;;3.33;2.65;;;;;;;8.96;100.00;98511.03;4989903;28;20151;-76
2023/03/13 09:13:32;;;;;;;3.97;2.60;;;;;;;9.06;100.00;98504.28;4982200;28;20053;-76
2023/03/13 09:16:04;;;;;;;3.65;2.63;;;;;;;9.05;100.00;98499.16;4989648;28;20034;-77
2023/03/13 09:18:30;;;;;;;3.15;2.65;;;;;;;9.06;100.00;98493.63;4996067;28;20226;-76
2023/03/13 09:20:55;;;;;;;5.40;2.65;;;;;;;9.10;100.00;98494.03;5024849;28;20124;-77
2023/03/13 09:23:21;;;;;;;3.03;2.30;;;;;;;9.22;100.00;98483.56;5008659;28;20037;-77
2023/03/13 09:25:47;;;;;;;;;;;;;;;9.27;100.00;98487.25;5024700;28;20087;-77
2023/03/13 09:28:13;;;;;;;3.45;2.45;;;;;;;9.28;100.00;98483.53;5009396;28;19995;-77
2023/03/13 09:30:38;;;;;;;3.27;2.83;;;;;;;9.35;100.00;98474.72;5004885;28;20034;-77
2023/03/13 09:33:03;;;;;;;5.27;3.60;;;;;;;9.44;100.00;98476.13;5004467;28;20044;-75
2023/03/13 09:35:29;;;;;;;4.57;2.97;;;;;;;9.51;100.00;98476.91;4990987;28;20440;-73
2023/03/13 09:37:54;;;;;;;4.33;2.50;;;;;;;9.52;100.00;98462.56;4988525;28;20193;-74
2023/03/13 09:40:23;;;;;;;3.15;2.40;;;;;;;9.65;100.00;98467.84;4987798;28;20510;-74
2023/03/13 09:42:58;;;;;;;4.57;2.95;;;;;;;9.79;100.00;98467.78;4988015;28;20205;-72
2023/03/13 09:45:32;;;;;;;3.47;2.67;;;;;;;9.82;100.00;98456.69;5003346;28;20038;-73
2023/03/13 09:48:04;;;;;;;4.47;2.85;;;;;;;9.91;100.00;98466.06;5001922;28;20038;-75
2023/03/13 09:50:35;;;;;;;2.88;2.35;;;;;;;10.01;100.00;98453.06;4987186;28;20049;-75
2023/03/13 09:53:12;;;;;;;2.47;1.90;;;;;;;10.02;100.00;98453.88;4990500;28;20061;-77
2023/03/13 09:55:41;;;;;;;2.63;1.90;;;;;;;10.08;100.00;98464.50;5001785;28;20056;-77
2023/03/13 09:58:18;;;;;;;2.72;2.13;;;;;;;10.03;100.00;98456.34;4987685;28;20022;-75
2023/03/13 10:00:50;;;;;;;2.70;2.30;;;;;;;10.03;100.00;98459.03;4985926;28;20187;-73
2023/03/13 10:03:27;;;;;;;3.95;2.10;;;;;;;10.03;100.00;98456.34;4982522;28;20080;-75
2023/03/13 10:06:03;;;;;;;3.38;2.00;;;;;;;10.09;100.00;98452.84;4985107;28;20049;-74
2023/03/13 10:08:30;;;;;;;4.68;3.28;;;;;;;10.08;100.00;98461.03;5002285;28;20038;-73
2023/03/13 10:11:08;;;;;;;2.72;2.17;;;;;;;10.06;100.00;98457.78;4986217;28;20030;-75
2023/03/13 10:13:43;;;;;;;4.13;2.20;;;;;;;10.11;100.00;98465.94;4988340;28;20066;-73
2023/03/13 10:16:16;;;;;;;3.10;2.20;;;;;;;10.15;100.00;98449.28;5000509;28;20034;-74
2023/03/13 10:18:51;;;;;;;3.13;1.95;;;;;;;10.14;100.00;98445.00;4985621;28;20038;-75
2023/03/13 10:21:21;;;;;;;5.55;2.75;;;;;;;10.14;100.00;98471.66;4987451;28;20089;-74
2023/03/13 10:23:56;;;;;;;3.13;2.33;;;;;;;10.13;100.00;98472.69;4999977;28;20638;-74
2023/03/13 10:26:26;;;;;;;3.23;2.43;;;;;;;10.14;100.00;98449.53;4996945;28;20029;-75
2023/03/13 10:29:01;;;;;;;2.95;2.58;;;;;;;10.19;100.00;98486.22;4985330;28;20133;-75
2023/03/13 10:31:36;;;;;;;3.90;2.45;;;;;;;10.26;100.00;98476.31;4986160;28;20038;-74
2023/03/13 10:34:10;;;;;;;4.30;2.50;;;;;;;10.28;100.00;98472.44;4998239;28;20037;-74
2023/03/13 10:36:47;;;;;;;4.80;2.72;;;;;;;10.31;100.00;98480.00;5006387;28;20489;-74
2023/03/13 10:39:22;;;;;;;4.53;2.63;;;;;;;10.37;100.00;98475.63;4980637;28;20030;-74
2023/03/13 10:41:49;;;;;;;8.05;2.95;;;;;;;10.38;100.00;98463.94;4983485;28;20065;-74
2023/03/13 10:44:16;;;;;;;4.80;2.47;;;;;;;10.56;100.00;98477.34;5002199;28;20026;-74
2023/03/13 10:46:44;;;;;;;8.10;3.20;;;;;;;10.52;100.00;98460.13;4986010;28;20038;-74
2023/03/13 10:49:15;;;;;;;4.40;2.67;;;;;;;10.60;100.00;98475.03;4987273;28;20443;-74
2023/03/13 10:51:47;;;;;;;3.35;2.63;;;;;;;10.69;100.00;98475.59;4989187;28;20178;-74
2023/03/13 10:54:14;;;;;;;3.55;2.70;;;;;;;10.74;100.00;98486.44;4987185;28;20129;-74
2023/03/13 10:56:40;;;;;;;4.70;2.60;;;;;;;10.74;100.00;98476.56;5005685;28;20026;-74
2023/03/13 10:59:20;;;;;;;4.60;2.20;;;;;;;11.11;100.00;98481.97;5016217;28;20084;-75
2023/03/13 11:01:46;;;;;;;2.72;2.20;;;;;;;11.17;100.00;98472.28;5002071;28;20485;-75
2023/03/13 11:04:28;;;;;;;4.55;2.20;;;;;;;11.17;100.00;98435.69;5001329;28;20426;-75
2023/03/13 11:07:02;;;;;;;4.07;2.15;;;;;;;11.09;100.00;98430.63;5016973;28;20510;-75
2023/03/13 11:09:27;;;;;;;3.50;2.40;;;;;;;11.16;100.00;98466.09;5001339;28;20096;-75
2023/03/13 11:11:55;;;;;;;6.10;2.33;;;;;;;11.56;100.00;98462.97;5001475;28;20022;-76
2023/03/13 11:14:23;;;;;;;4.22;2.38;;;;;;;11.44;100.00;98455.94;5001562;28;20042;-75
2023/03/13 11:17:09;;;;;;;4.47;2.05;;;;;;;11.35;100.00;98428.69;5003787;28;20119;-74
2023/03/13 11:20:04;;;;;;;3.95;2.10;;;;;;;11.27;100.00;98445.84;4986045;28;20030;-75
2023/03/13 11:22:48;;;;;;;5.57;2.30;;;;;;;11.29;100.00;98441.09;4996061;28;20066;-74
2023/03/13 11:25:20;;;;;;;4.00;2.38;;;;;;;11.34;100.00;98446.59;4982035;28;20831;-73
2023/03/13 11:28:01;;;;;;;6.57;2.50;;;;;;;11.46;100.00;98435.16;4980863;28;20038;-74
2023/03/13 11:30:52;;;;;;;4.68;2.40;;;;;;;11.54;100.00;98429.50;4998291;28;20791;-73
2023/03/13 11:33:32;;;;;;;2.65;1.92;;;;;;;12.04;100.00;98438.09;4982526;28;20030;-75
2023/03/13 11:36:24;;;;;;;2.45;1.77;;;;;;;12.64;100.00;98421.09;5000209;28;20062;-74
2023/03/13 11:39:06;;;;;;;2.90;1.60;;;;;;;12.89;100.00;98369.16;4983304;28;20535;-74
2023/03/13 11:41:52;;;;;;;3.88;1.67;;;;;;;13.59;100.00;98340.53;5006565;28;20488;-75